Portada
METAR-TAF:

METAR-TAF

Aeroports :

Sanya, Xina

latitud: 18-18N, longitud: 109-24E, altitud: 27 m

Observació

L'informe es va fer fa 20 minuts, a les 00:00 UTC
Vent 2 kt amb direcció variable
Temperatura 21°C
Humitat 78%
Pressió 1017 hPa
Visibilitat 10 km o més
sense núvols per sota de 1500 mi sense presència de cumulonimbus.

METAR: ZJSY 220000Z VRB01MPS CAVOK 21/17 Q1017 BECMG AT0150 09005MPS

Hora: 08:20 (00:20 UTC)

Pronòstic

L'informe es va fer fa 5 hores i 15 minuts, a les 19:05 UTC
Pronòstic vàlid del 22 a les 00 UTC al 22 a les 24 UTC
Vent 8 kt del Est
Visibilitat 10 km o més
Escasses núvols a una alçada de 2000 ft

TAF: ZJSY 211905Z 2200/2224 09004MPS 9999 FEW020 TX30/2206Z TN20/2221Z

Observacions i pronòstics meteorològics de més de 4000 aeroports (METAR i TAF).

Les estacions disponibles són els punts grocs i vermells al mapa.

Posi el ratolí al punt desitjat per veure el nom de l'estació.

Feu clic per veure les observacions i els pronòstics meteorològics.

Per canviar el mapa: feu clic els botons verds amb una creu de color negre per apropar; al botó verd amb un guió per allunyar la imatge; o en les fletxes verdes per a mapes adjacents.


METAR-TAF: